Time;durP1;ratioP1;P1;durP2;ratioP2;P2;SDS_P1;SDS_P2;PMS_P1;PMS_P2;Temp;Humidity;BMP_temperature;BMP_pressure;BME280_temperature;BME280_humidity;BME280_pressure;Samples;Min_cycle;Max_cycle;Signal;HPM_P1;HPM_P2
2022/05/19 00:00:21;;;;;;;5.35;3.97;;;;;;;;;;4162225;34;20191;-62
2022/05/19 00:02:47;;;;;;;4.90;3.42;;;;;;;;;;4149968;34;20169;-62
2022/05/19 00:32:56;;;;;;;6.30;4.30;;;;;;;;;;4716680;28;20125;-64
2022/05/19 00:35:23;;;;;;;6.03;4.10;;;;;;;;;;4163223;34;20134;-64
2022/05/19 00:37:48;;;;;;;5.18;4.37;;;;;;;;;;4177892;34;20142;-64
2022/05/19 00:40:17;;;;;;;4.55;4.07;;;;;;;;;;4177776;34;20154;-67
2022/05/19 00:42:45;;;;;;;6.05;4.22;;;;;;;;;;4177887;34;20528;-64
2022/05/19 00:45:19;;;;;;;7.35;4.40;;;;;;;;;;4177696;34;20101;-64
2022/05/19 00:47:50;;;;;;;5.32;3.90;;;;;;;;;;4178141;34;20114;-64
2022/05/19 00:50:24;;;;;;;6.35;4.10;;;;;;;;;;4177978;34;20226;-64
2022/05/19 00:52:53;;;;;;;5.00;3.87;;;;;;;;;;4165175;34;20129;-64
2022/05/19 00:55:28;;;;;;;7.43;4.45;;;;;;;;;;4177870;34;20227;-64
2022/05/19 00:58:15;;;;;;;5.00;4.07;;;;;;;;;;4177930;34;20229;-65
2022/05/19 01:00:41;;;;;;;6.35;4.10;;;;;;;;;;4165061;34;20137;-64
2022/05/19 01:03:08;;;;;;;4.68;4.18;;;;;;;;;;4177836;34;20122;-64
2022/05/19 01:05:42;;;;;;;6.00;4.20;;;;;;;;;;4177682;34;20607;-65
2022/05/19 01:08:19;;;;;;;4.57;4.18;;;;;;;;;;4177566;34;20543;-64
2022/05/19 01:10:45;;;;;;;3.95;3.55;;;;;;;;;;4165166;34;20195;-64
2022/05/19 01:13:12;;;;;;;5.90;4.07;;;;;;;;;;4165283;34;20153;-65
2022/05/19 01:15:41;;;;;;;4.22;3.83;;;;;;;;;;4177857;34;20121;-65
2022/05/19 01:18:08;;;;;;;5.75;3.80;;;;;;;;;;4164975;34;20105;-66
2022/05/19 01:20:35;;;;;;;4.18;3.78;;;;;;;;;;4177199;34;20129;-64
2022/05/19 01:23:31;;;;;;;4.10;3.70;;;;;;;;;;4177621;34;20596;-65
2022/05/19 01:26:20;;;;;;;5.75;4.00;;;;;;;;;;4174376;34;20142;-64
2022/05/19 01:28:46;;;;;;;5.62;4.40;;;;;;;;;;4153566;34;20121;-64
2022/05/19 01:31:31;;;;;;;4.37;3.97;;;;;;;;;;4164809;34;20571;-63
2022/05/19 01:33:57;;;;;;;;;;;;;;;;;;4177826;34;20206;-63
2022/05/19 01:36:23;;;;;;;9.40;3.97;;;;;;;;;;4177441;34;20090;-64
2022/05/19 01:39:02;;;;;;;5.53;4.07;;;;;;;;;;4164741;34;20121;-65
2022/05/19 01:41:50;;;;;;;4.12;3.67;;;;;;;;;;4177560;34;20662;-65
2022/05/19 01:44:50;;;;;;;4.03;3.40;;;;;;;;;;4177658;34;20179;-65
2022/05/19 01:47:29;;;;;;;6.47;4.07;;;;;;;;;;4177371;34;20126;-66
2022/05/19 01:50:08;;;;;;;4.40;3.95;;;;;;;;;;4153541;34;20228;-65
2022/05/19 01:52:56;;;;;;;4.60;4.20;;;;;;;;;;4177399;34;20206;-64
2022/05/19 01:55:27;;;;;;;4.80;3.72;;;;;;;;;;4177483;34;20102;-64
2022/05/19 01:58:00;;;;;;;6.68;3.80;;;;;;;;;;4164535;34;20133;-64
2022/05/19 02:00:28;;;;;;;6.93;3.87;;;;;;;;;;4177236;34;20118;-65
2022/05/19 02:03:00;;;;;;;5.45;3.87;;;;;;;;;;4177241;34;20195;-63
2022/05/19 02:05:44;;;;;;;9.05;3.70;;;;;;;;;;4177314;34;20184;-65
2022/05/19 02:08:17;;;;;;;5.75;3.53;;;;;;;;;;4153007;34;20547;-64
2022/05/19 02:10:45;;;;;;;4.32;3.92;;;;;;;;;;4177206;34;20579;-63
2022/05/19 02:13:12;;;;;;;5.20;3.72;;;;;;;;;;4177494;34;20097;-63
2022/05/19 02:15:40;;;;;;;4.72;4.12;;;;;;;;;;4175718;34;20219;-64
2022/05/19 02:18:06;;;;;;;4.62;4.10;;;;;;;;;;4164455;34;20145;-64
2022/05/19 02:20:34;;;;;;;8.90;4.62;;;;;;;;;;4177015;34;20111;-63
2022/05/19 02:23:00;;;;;;;5.50;4.15;;;;;;;;;;4164268;34;20649;-64
2022/05/19 02:25:48;;;;;;;5.18;4.05;;;;;;;;;;4164272;34;20566;-64
2022/05/19 02:28:20;;;;;;;9.93;4.20;;;;;;;;;;4177059;34;20444;-64
2022/05/19 02:30:47;;;;;;;4.37;3.92;;;;;;;;;;4164212;34;20106;-64
2022/05/19 02:33:14;;;;;;;6.28;4.03;;;;;;;;;;4176840;34;20545;-64
2022/05/19 02:35:40;;;;;;;5.12;4.62;;;;;;;;;;4177168;34;20194;-63
2022/05/19 02:38:06;;;;;;;4.57;3.85;;;;;;;;;;4164165;34;20143;-63
2022/05/19 02:40:34;;;;;;;5.05;3.92;;;;;;;;;;4177027;34;20122;-63
2022/05/19 02:43:01;;;;;;;4.70;3.85;;;;;;;;;;4176972;34;20748;-64
2022/05/19 02:45:27;;;;;;;6.28;3.92;;;;;;;;;;4176595;34;20129;-65
2022/05/19 02:47:53;;;;;;;4.45;3.58;;;;;;;;;;4176729;34;20146;-64
2022/05/19 02:50:20;;;;;;;8.48;3.87;;;;;;;;;;4176713;34;20114;-64
2022/05/19 02:52:46;;;;;;;8.13;3.78;;;;;;;;;;4164337;34;20157;-64
2022/05/19 02:55:12;;;;;;;5.25;4.18;;;;;;;;;;4176755;34;20122;-63
2022/05/19 02:57:38;;;;;;;4.97;4.12;;;;;;;;;;4177007;34;20144;-64
2022/05/19 03:00:07;;;;;;;4.95;4.00;;;;;;;;;;4176754;34;20516;-65
2022/05/19 03:02:33;;;;;;;6.62;4.10;;;;;;;;;;4176922;34;20430;-64
2022/05/19 03:04:59;;;;;;;4.00;3.60;;;;;;;;;;4177001;34;20111;-63
2022/05/19 03:07:25;;;;;;;4.00;3.47;;;;;;;;;;4164024;34;20510;-63
2022/05/19 03:09:51;;;;;;;6.07;3.70;;;;;;;;;;4176559;34;20098;-64
2022/05/19 03:12:17;;;;;;;5.20;4.07;;;;;;;;;;4176611;34;20110;-64
2022/05/19 03:14:43;;;;;;;5.50;3.80;;;;;;;;;;4176776;34;20107;-64
2022/05/19 03:17:10;;;;;;;4.37;3.70;;;;;;;;;;4176779;34;20142;-64
2022/05/19 03:19:37;;;;;;;5.70;3.80;;;;;;;;;;4176486;34;20454;-65
2022/05/19 03:22:04;;;;;;;6.57;3.80;;;;;;;;;;4163744;34;20118;-64
2022/05/19 03:24:30;;;;;;;14.43;5.47;;;;;;;;;;4176639;34;20121;-64
2022/05/19 03:26:56;;;;;;;6.70;3.92;;;;;;;;;;4176656;34;20109;-64
2022/05/19 03:29:22;;;;;;;9.90;3.58;;;;;;;;;;4176549;34;20118;-63
2022/05/19 03:31:48;;;;;;;8.48;3.67;;;;;;;;;;4176379;34;20110;-64
2022/05/19 03:34:17;;;;;;;7.32;3.45;;;;;;;;;;4176064;34;20126;-64
2022/05/19 03:36:45;;;;;;;8.88;3.92;;;;;;;;;;4176334;34;20126;-64
2022/05/19 03:39:12;;;;;;;5.87;3.92;;;;;;;;;;4176402;34;20540;-64
2022/05/19 03:41:38;;;;;;;7.47;4.15;;;;;;;;;;4176610;34;20117;-64
2022/05/19 03:44:04;;;;;;;8.32;3.72;;;;;;;;;;4178167;34;20142;-64
2022/05/19 03:46:30;;;;;;;5.65;3.30;;;;;;;;;;4165605;34;20174;-66
2022/05/19 03:48:56;;;;;;;9.38;3.83;;;;;;;;;;4165743;34;20094;-67
2022/05/19 03:51:26;;;;;;;12.20;4.05;;;;;;;;;;4178353;34;20110;-66
2022/05/19 03:53:53;;;;;;;5.85;3.67;;;;;;;;;;4178689;34;20439;-67
2022/05/19 03:56:21;;;;;;;10.95;4.05;;;;;;;;;;4165615;34;20452;-68
2022/05/19 03:58:48;;;;;;;8.23;4.10;;;;;;;;;;4178317;34;20105;-71
2022/05/19 04:01:15;;;;;;;10.20;4.25;;;;;;;;;;4178139;34;20190;-65
2022/05/19 04:03:41;;;;;;;8.93;3.92;;;;;;;;;;4165760;34;20126;-65
2022/05/19 04:06:07;;;;;;;12.57;4.25;;;;;;;;;;4165396;34;20106;-65
2022/05/19 04:08:33;;;;;;;10.55;4.03;;;;;;;;;;4165561;34;20110;-64
2022/05/19 04:10:59;;;;;;;5.30;4.20;;;;;;;;;;4178087;34;20090;-71
2022/05/19 04:13:25;;;;;;;5.15;3.78;;;;;;;;;;4178036;34;20440;-65
2022/05/19 04:15:52;;;;;;;10.57;4.20;;;;;;;;;;4178118;34;20107;-65
2022/05/19 04:18:18;;;;;;;6.35;4.15;;;;;;;;;;4178015;34;20102;-64
2022/05/19 04:20:44;;;;;;;5.35;4.03;;;;;;;;;;4165187;34;20540;-64
2022/05/19 04:23:11;;;;;;;7.15;4.12;;;;;;;;;;4178240;34;20130;-63
2022/05/19 04:25:37;;;;;;;4.37;3.70;;;;;;;;;;4177942;34;20488;-62
2022/05/19 04:28:04;;;;;;;9.23;3.83;;;;;;;;;;4178169;34;20556;-62
2022/05/19 04:30:31;;;;;;;6.70;4.47;;;;;;;;;;4177961;34;20109;-63
2022/05/19 04:32:57;;;;;;;4.05;3.65;;;;;;;;;;4177920;34;20140;-62
2022/05/19 04:35:23;;;;;;;6.65;4.20;;;;;;;;;;4177884;34;20110;-63
2022/05/19 04:37:49;;;;;;;4.68;3.80;;;;;;;;;;4178060;34;20101;-63
2022/05/19 04:40:16;;;;;;;4.72;3.83;;;;;;;;;;4177828;34;20110;-63
2022/05/19 04:42:42;;;;;;;4.78;4.28;;;;;;;;;;4177945;34;20119;-63
2022/05/19 04:45:10;;;;;;;7.65;3.67;;;;;;;;;;4177859;34;20114;-62
2022/05/19 04:47:36;;;;;;;7.43;3.72;;;;;;;;;;4165018;34;20195;-63
2022/05/19 04:50:03;;;;;;;8.73;3.62;;;;;;;;;;4177956;34;20098;-62
2022/05/19 04:52:28;;;;;;;7.95;3.97;;;;;;;;;;4165260;34;20534;-63
2022/05/19 04:54:54;;;;;;;7.95;3.75;;;;;;;;;;4176877;34;20106;-62
2022/05/19 04:57:20;;;;;;;6.80;5.00;;;;;;;;;;4177443;34;20122;-62
2022/05/19 04:59:46;;;;;;;6.05;3.55;;;;;;;;;;4177712;34;20106;-63
2022/05/19 05:02:12;;;;;;;8.10;3.65;;;;;;;;;;4177664;34;20110;-63
2022/05/19 05:04:38;;;;;;;7.05;3.75;;;;;;;;;;4177586;34;20550;-63
2022/05/19 05:07:05;;;;;;;4.10;3.28;;;;;;;;;;4177601;34;20214;-62
2022/05/19 05:09:31;;;;;;;7.95;3.85;;;;;;;;;;4177745;34;20110;-62
2022/05/19 05:11:57;;;;;;;7.65;3.55;;;;;;;;;;4177728;34;20114;-63
2022/05/19 05:14:23;;;;;;;6.95;3.60;;;;;;;;;;4165134;34;20141;-63
2022/05/19 05:16:50;;;;;;;4.18;3.17;;;;;;;;;;4177699;34;20535;-63
2022/05/19 05:19:22;;;;;;;8.25;3.60;;;;;;;;;;4177400;34;20144;-65
2022/05/19 05:21:58;;;;;;;3.70;3.33;;;;;;;;;;4177295;34;20102;-66
2022/05/19 05:24:25;;;;;;;5.45;4.00;;;;;;;;;;4176666;34;20111;-66
2022/05/19 05:26:51;;;;;;;3.80;3.00;;;;;;;;;;4176870;34;20145;-65
2022/05/19 05:29:19;;;;;;;3.58;3.28;;;;;;;;;;4177188;34;20463;-67
2022/05/19 05:31:46;;;;;;;5.60;3.37;;;;;;;;;;4177238;34;20230;-65
2022/05/19 05:34:12;;;;;;;3.92;3.53;;;;;;;;;;4176888;34;20122;-64
2022/05/19 05:36:38;;;;;;;7.03;3.50;;;;;;;;;;4162693;34;20125;-65
2022/05/19 05:39:04;;;;;;;4.18;3.37;;;;;;;;;;4177030;34;20218;-66
2022/05/19 05:41:30;;;;;;;6.32;3.58;;;;;;;;;;4176948;34;20451;-66
2022/05/19 05:43:56;;;;;;;3.65;3.35;;;;;;;;;;4177081;34;20138;-64
2022/05/19 05:46:22;;;;;;;4.10;3.60;;;;;;;;;;4177385;34;20207;-64
2022/05/19 05:48:48;;;;;;;4.45;3.75;;;;;;;;;;4177536;34;20115;-63
2022/05/19 05:51:15;;;;;;;5.82;3.50;;;;;;;;;;4177335;34;20545;-64
2022/05/19 05:53:43;;;;;;;6.00;3.90;;;;;;;;;;4177195;34;20480;-64
2022/05/19 05:56:11;;;;;;;4.80;3.70;;;;;;;;;;4177111;34;20536;-64
2022/05/19 05:58:37;;;;;;;6.72;3.83;;;;;;;;;;4177551;34;20122;-64
2022/05/19 06:01:07;;;;;;;4.37;3.35;;;;;;;;;;4177333;34;20207;-62
2022/05/19 06:03:33;;;;;;;8.75;4.32;;;;;;;;;;4177214;34;20534;-63
2022/05/19 06:05:59;;;;;;;9.35;3.62;;;;;;;;;;4177012;34;20118;-63
2022/05/19 06:08:26;;;;;;;5.75;3.72;;;;;;;;;;4177351;34;20110;-64
2022/05/19 06:10:51;;;;;;;4.15;3.75;;;;;;;;;;4163761;34;20177;-64
2022/05/19 06:13:18;;;;;;;5.18;4.12;;;;;;;;;;4177211;34;20454;-64
2022/05/19 06:15:44;;;;;;;9.00;3.67;;;;;;;;;;4177347;34;20099;-64
2022/05/19 06:18:10;;;;;;;9.23;3.95;;;;;;;;;;4164260;34;20110;-63
2022/05/19 06:20:37;;;;;;;8.55;4.15;;;;;;;;;;4164586;34;20506;-63
2022/05/19 06:23:03;;;;;;;10.10;4.00;;;;;;;;;;4177052;34;20495;-63
2022/05/19 06:25:30;;;;;;;4.78;3.70;;;;;;;;;;4177245;34;20119;-63
2022/05/19 06:27:56;;;;;;;7.22;4.57;;;;;;;;;;4176655;34;20177;-64
2022/05/19 06:30:22;;;;;;;4.70;3.55;;;;;;;;;;4164440;34;20138;-64
2022/05/19 06:32:50;;;;;;;5.95;3.50;;;;;;;;;;4177015;34;20538;-63
2022/05/19 06:35:19;;;;;;;3.55;3.08;;;;;;;;;;4176883;34;20122;-62
2022/05/19 06:37:45;;;;;;;6.60;3.67;;;;;;;;;;4177002;34;20113;-63
2022/05/19 06:40:13;;;;;;;6.57;3.47;;;;;;;;;;4177139;34;20086;-64
2022/05/19 06:42:39;;;;;;;6.20;3.92;;;;;;;;;;4176779;34;20131;-63
2022/05/19 06:45:06;;;;;;;6.45;3.90;;;;;;;;;;4176898;34;20106;-67
2022/05/19 06:47:32;;;;;;;9.57;3.62;;;;;;;;;;4176706;34;20505;-65
2022/05/19 06:49:58;;;;;;;6.95;3.87;;;;;;;;;;4163990;34;20110;-64
2022/05/19 06:52:28;;;;;;;5.35;3.40;;;;;;;;;;4163898;34;20444;-71
2022/05/19 06:54:57;;;;;;;5.47;3.90;;;;;;;;;;4152635;34;20198;-65
2022/05/19 06:57:24;;;;;;;8.73;2.90;;;;;;;;;;4176589;34;20751;-65
2022/05/19 06:59:51;;;;;;;2.70;2.25;;;;;;;;;;4164113;34;20095;-65
2022/05/19 07:02:19;;;;;;;2.47;2.20;;;;;;;;;;4176830;34;20094;-65
2022/05/19 07:04:46;;;;;;;5.10;2.70;;;;;;;;;;4176688;34;20196;-65
2022/05/19 07:07:12;;;;;;;3.08;2.50;;;;;;;;;;4176721;34;20099;-65
2022/05/19 07:09:38;;;;;;;3.00;2.40;;;;;;;;;;4176757;34;20102;-63
2022/05/19 07:12:05;;;;;;;8.73;3.35;;;;;;;;;;4176671;34;20095;-63
2022/05/19 07:14:33;;;;;;;16.70;3.33;;;;;;;;;;4176499;34;20556;-64
2022/05/19 07:16:59;;;;;;;9.60;2.83;;;;;;;;;;4176535;34;20118;-64
2022/05/19 07:22:16;;;;;;;5.63;2.93;;;;;;;;;;4178604;34;20210;-63
2022/05/19 07:24:42;;;;;;;3.40;2.92;;;;;;;;;;4178526;34;20173;-63
2022/05/19 07:27:08;;;;;;;4.43;2.67;;;;;;;;;;4178485;34;20531;-63
2022/05/19 07:29:34;;;;;;;5.72;3.03;;;;;;;;;;4178446;34;20542;-64
2022/05/19 07:32:03;;;;;;;4.75;2.80;;;;;;;;;;4178585;34;20157;-64
2022/05/19 07:34:31;;;;;;;5.12;2.53;;;;;;;;;;4178353;34;20487;-64
2022/05/19 07:36:58;;;;;;;4.37;2.65;;;;;;;;;;4178498;34;20562;-65
2022/05/19 07:39:24;;;;;;;2.65;2.45;;;;;;;;;;4178385;34;20192;-66
2022/05/19 07:41:53;;;;;;;4.00;2.28;;;;;;;;;;4143413;34;20552;-65
2022/05/19 07:44:19;;;;;;;3.28;2.20;;;;;;;;;;4178178;34;20122;-65
2022/05/19 07:46:45;;;;;;;3.72;2.10;;;;;;;;;;4178116;34;20106;-64
2022/05/19 07:49:11;;;;;;;5.28;2.70;;;;;;;;;;4165451;34;20126;-64
2022/05/19 07:51:40;;;;;;;8.55;3.55;;;;;;;;;;4178280;34;20219;-65
2022/05/19 07:54:11;;;;;;;3.22;2.58;;;;;;;;;;4165641;34;20447;-65
2022/05/19 07:56:38;;;;;;;4.78;2.85;;;;;;;;;;4165817;34;20113;-63
2022/05/19 07:59:05;;;;;;;3.25;2.50;;;;;;;;;;4178377;34;20146;-63
2022/05/19 08:01:31;;;;;;;3.05;2.33;;;;;;;;;;4178255;34;20110;-63
2022/05/19 08:03:58;;;;;;;3.10;2.55;;;;;;;;;;4176007;34;20133;-63
2022/05/19 08:06:25;;;;;;;3.22;2.53;;;;;;;;;;4133220;34;20111;-63
2022/05/19 08:08:51;;;;;;;2.42;2.22;;;;;;;;;;4158337;34;20099;-62
2022/05/19 08:11:18;;;;;;;6.05;2.85;;;;;;;;;;4152901;34;20090;-62
2022/05/19 08:16:29;;;;;;;4.78;2.10;;;;;;;;;;4178143;34;20201;-65
2022/05/19 08:18:55;;;;;;;5.70;3.25;;;;;;;;;;4177829;34;20165;-65
2022/05/19 08:21:21;;;;;;;2.37;2.12;;;;;;;;;;4178065;34;20144;-65
2022/05/19 08:23:50;;;;;;;2.83;1.87;;;;;;;;;;4177662;34;20118;-66
2022/05/19 08:26:17;;;;;;;2.70;1.67;;;;;;;;;;4177795;34;20456;-66
2022/05/19 08:28:43;;;;;;;2.08;1.90;;;;;;;;;;4177393;34;20529;-66
2022/05/19 08:31:12;;;;;;;2.78;1.92;;;;;;;;;;4177827;34;20125;-65
2022/05/19 08:33:39;;;;;;;1.90;1.65;;;;;;;;;;4177772;34;20142;-64
2022/05/19 08:36:07;;;;;;;1.75;1.65;;;;;;;;;;4177523;34;20106;-66
2022/05/19 08:38:33;;;;;;;1.70;1.45;;;;;;;;;;4153344;34;20150;-63
2022/05/19 08:41:25;;;;;;;3.20;2.08;;;;;;;;;;4177574;34;20275;-65
2022/05/19 08:43:57;;;;;;;2.35;1.83;;;;;;;;;;4164783;34;20443;-64
2022/05/19 08:46:32;;;;;;;1.95;1.73;;;;;;;;;;4153933;34;20107;-65
2022/05/19 08:49:02;;;;;;;1.70;1.60;;;;;;;;;;4177614;34;20542;-66
2022/05/19 08:51:37;;;;;;;2.53;1.73;;;;;;;;;;4177486;34;20521;-63
2022/05/19 08:54:05;;;;;;;1.98;1.70;;;;;;;;;;4177280;34;20119;-64
2022/05/19 08:57:03;;;;;;;2.53;1.80;;;;;;;;;;4164843;34;20115;-65
2022/05/19 08:59:47;;;;;;;3.12;1.75;;;;;;;;;;4174208;34;20467;-65
2022/05/19 09:02:17;;;;;;;3.92;2.20;;;;;;;;;;4177527;34;20118;-65
2022/05/19 09:05:04;;;;;;;3.10;1.98;;;;;;;;;;4164399;34;20113;-64
2022/05/19 09:07:58;;;;;;;2.20;1.60;;;;;;;;;;4177411;34;20526;-64
2022/05/19 09:10:40;;;;;;;1.77;1.33;;;;;;;;;;4144533;34;20114;-64
2022/05/19 09:13:16;;;;;;;1.70;1.60;;;;;;;;;;4150777;34;20126;-63
2022/05/19 09:15:44;;;;;;;1.65;1.55;;;;;;;;;;4163544;34;20287;-65
2022/05/19 09:18:10;;;;;;;4.47;1.70;;;;;;;;;;4163714;34;20476;-64
2022/05/19 09:20:41;;;;;;;1.73;1.52;;;;;;;;;;4151170;34;20545;-64
2022/05/19 09:23:07;;;;;;;5.90;1.67;;;;;;;;;;4163548;34;20562;-63
2022/05/19 09:25:37;;;;;;;3.15;1.70;;;;;;;;;;4163790;34;20189;-66
2022/05/19 09:28:03;;;;;;;1.00;1.00;;;;;;;;;;4150374;34;20118;-65
2022/05/19 09:30:38;;;;;;;7.93;3.47;;;;;;;;;;4163463;34;20118;-64
2022/05/19 09:33:14;;;;;;;3.33;1.60;;;;;;;;;;4163527;34;20118;-64
2022/05/19 09:35:45;;;;;;;3.80;1.40;;;;;;;;;;4163418;34;20518;-64
2022/05/19 09:38:24;;;;;;;1.48;1.37;;;;;;;;;;4163792;34;20122;-63
2022/05/19 09:40:54;;;;;;;1.80;1.70;;;;;;;;;;4162775;34;20145;-64
2022/05/19 09:43:26;;;;;;;1.87;1.75;;;;;;;;;;4173575;34;20198;-64
2022/05/19 09:46:00;;;;;;;1.60;1.50;;;;;;;;;;4164628;34;20165;-65
2022/05/19 09:48:28;;;;;;;1.60;1.50;;;;;;;;;;4164110;34;20118;-64
2022/05/19 09:51:01;;;;;;;3.47;1.70;;;;;;;;;;4151806;34;20209;-64
2022/05/19 09:53:29;;;;;;;1.83;1.50;;;;;;;;;;4172639;34;20111;-66
2022/05/19 09:56:01;;;;;;;3.22;1.55;;;;;;;;;;4173714;34;20114;-65
2022/05/19 09:58:31;;;;;;;1.60;1.50;;;;;;;;;;4176663;34;20115;-66
2022/05/19 10:01:04;;;;;;;2.35;1.60;;;;;;;;;;4164055;34;20597;-65
2022/05/19 10:04:03;;;;;;;1.98;1.50;;;;;;;;;;4177048;34;20102;-66
2022/05/19 10:06:54;;;;;;;7.05;2.50;;;;;;;;;;4173337;34;20432;-65
2022/05/19 10:09:23;;;;;;;4.03;1.90;;;;;;;;;;4176080;34;20484;-61
2022/05/19 10:11:55;;;;;;;2.42;1.62;;;;;;;;;;4176896;34;20102;-65
2022/05/19 10:14:30;;;;;;;1.25;1.15;;;;;;;;;;4176925;34;20095;-65
2022/05/19 10:17:21;;;;;;;1.75;1.25;;;;;;;;;;4164305;34;20142;-64
2022/05/19 10:20:03;;;;;;;1.60;1.50;;;;;;;;;;4176762;34;20534;-65
2022/05/19 10:22:29;;;;;;;1.70;1.50;;;;;;;;;;4173667;34;20542;-66
2022/05/19 10:25:08;;;;;;;2.12;1.35;;;;;;;;;;4163362;34;20100;-64
2022/05/19 10:31:14;;;;;;;1.73;1.48;;;;;;;;;;4163312;34;20111;-65
2022/05/19 10:33:49;;;;;;;2.60;1.60;;;;;;;;;;4163573;34;20102;-65
2022/05/19 10:36:37;;;;;;;2.90;1.83;;;;;;;;;;4150725;34;20126;-65
2022/05/19 10:39:21;;;;;;;4.43;2.40;;;;;;;;;;4163548;34;20111;-64
2022/05/19 10:41:59;;;;;;;3.40;2.15;;;;;;;;;;4176866;34;20094;-64
2022/05/19 10:44:28;;;;;;;3.83;2.28;;;;;;;;;;4176711;34;20202;-63
2022/05/19 10:47:05;;;;;;;2.05;1.50;;;;;;;;;;4176993;34;20087;-63
2022/05/19 10:50:07;;;;;;;2.72;1.98;;;;;;;;;;4177075;34;20142;-63
2022/05/19 10:52:39;;;;;;;3.10;1.80;;;;;;;;;;4175746;34;20494;-62
2022/05/19 10:55:19;;;;;;;2.62;1.92;;;;;;;;;;4176982;34;20126;-64
2022/05/19 10:58:08;;;;;;;1.65;1.52;;;;;;;;;;4153015;34;20463;-64
2022/05/19 11:00:56;;;;;;;6.03;2.45;;;;;;;;;;4176739;34;20483;-63
2022/05/19 11:04:00;;;;;;;3.33;1.80;;;;;;;;;;4176735;34;20186;-63
2022/05/19 11:06:25;;;;;;;6.18;1.90;;;;;;;;;;4163868;34;20110;-62
2022/05/19 11:09:00;;;;;;;4.72;1.70;;;;;;;;;;4176901;34;20184;-63
2022/05/19 11:11:38;;;;;;;2.50;1.40;;;;;;;;;;4176817;34;20202;-64
2022/05/19 11:14:07;;;;;;;2.03;1.45;;;;;;;;;;4176602;34;20220;-63
2022/05/19 11:16:44;;;;;;;3.42;1.60;;;;;;;;;;4176696;34;20122;-62
2022/05/19 11:19:18;;;;;;;3.53;1.52;;;;;;;;;;4163795;34;20118;-62
2022/05/19 11:21:46;;;;;;;3.53;1.70;;;;;;;;;;4164205;34;20444;-63
2022/05/19 11:24:32;;;;;;;4.05;1.52;;;;;;;;;;4176514;34;20657;-62
2022/05/19 11:27:10;;;;;;;1.48;1.37;;;;;;;;;;4152738;34;20120;-62
2022/05/19 11:29:42;;;;;;;4.37;2.00;;;;;;;;;;4163785;34;20091;-62
2022/05/19 11:32:13;;;;;;;1.40;1.27;;;;;;;;;;4163751;34;20105;-63
2022/05/19 11:34:48;;;;;;;1.50;1.40;;;;;;;;;;4176236;34;20091;-62
2022/05/19 11:37:23;;;;;;;1.33;1.23;;;;;;;;;;4163546;34;20129;-62
2022/05/19 11:40:14;;;;;;;1.70;1.60;;;;;;;;;;4176330;34;20122;-64
2022/05/19 11:42:55;;;;;;;2.30;1.50;;;;;;;;;;4162862;34;20114;-64
2022/05/19 11:45:26;;;;;;;1.40;1.30;;;;;;;;;;4162863;34;20424;-64
2022/05/19 11:56:44;;;;;;;1.33;1.20;;;;;;;;;;4161333;34;20099;-63
2022/05/19 11:59:10;;;;;;;1.40;1.30;;;;;;;;;;4149869;34;20178;-66
2022/05/19 12:01:47;;;;;;;4.10;2.15;;;;;;;;;;4162701;34;20114;-64
2022/05/19 12:04:27;;;;;;;1.37;1.27;;;;;;;;;;4163732;34;20099;-65
2022/05/19 12:07:06;;;;;;;1.50;1.40;;;;;;;;;;4163154;34;20218;-65
2022/05/19 12:09:42;;;;;;;2.03;1.50;;;;;;;;;;4165219;34;20130;-63
2022/05/19 12:12:23;;;;;;;1.45;1.35;;;;;;;;;;4150378;34;20133;-65
2022/05/19 12:15:15;;;;;;;2.67;1.58;;;;;;;;;;4151681;34;20114;-65
2022/05/19 12:17:55;;;;;;;1.62;1.52;;;;;;;;;;4150510;34;20440;-65
2022/05/19 12:20:44;;;;;;;2.37;1.80;;;;;;;;;;4164395;34;20428;-63
2022/05/19 12:23:19;;;;;;;2.22;1.37;;;;;;;;;;4151669;34;20106;-62
2022/05/19 12:25:46;;;;;;;;;;;;;;;;;;4164700;34;20114;-62
2022/05/19 12:28:12;;;;;;;5.68;2.50;;;;;;;;;;4164374;34;19990;-61
2022/05/19 12:33:29;;;;;;;1.60;1.50;;;;;;;;;;4164424;34;20110;-63
2022/05/19 12:36:06;;;;;;;3.05;1.40;;;;;;;;;;4164159;34;20118;-63
2022/05/19 12:38:37;;;;;;;1.52;1.33;;;;;;;;;;4151770;34;20095;-63
2022/05/19 12:41:05;;;;;;;1.40;1.30;;;;;;;;;;4151854;34;20451;-64
2022/05/19 12:43:58;;;;;;;1.45;1.35;;;;;;;;;;4151551;34;20099;-64
2022/05/19 12:46:33;;;;;;;1.58;1.48;;;;;;;;;;4162816;34;20123;-63
2022/05/19 12:49:25;;;;;;;2.60;1.45;;;;;;;;;;4151484;34;20183;-64
2022/05/19 12:52:00;;;;;;;1.73;1.20;;;;;;;;;;4151754;34;20141;-65
2022/05/19 12:54:28;;;;;;;1.40;1.17;;;;;;;;;;4151434;34;20203;-63
2022/05/19 12:57:12;;;;;;;1.30;1.20;;;;;;;;;;4164021;34;20102;-64
2022/05/19 12:59:45;;;;;;;1.70;1.20;;;;;;;;;;4139978;34;20115;-66
2022/05/19 13:02:19;;;;;;;1.50;1.40;;;;;;;;;;4151631;34;20510;-63
2022/05/19 13:04:48;;;;;;;3.58;1.48;;;;;;;;;;4151675;34;20205;-60
2022/05/19 13:07:28;;;;;;;1.60;1.30;;;;;;;;;;4164040;34;20219;-62
2022/05/19 13:10:16;;;;;;;1.80;1.15;;;;;;;;;;4151267;34;20617;-62
2022/05/19 13:12:49;;;;;;;1.45;1.35;;;;;;;;;;4163896;34;20126;-64
2022/05/19 13:15:27;;;;;;;4.78;1.50;;;;;;;;;;4150478;34;20122;-64
2022/05/19 13:17:54;;;;;;;7.32;1.70;;;;;;;;;;4163823;34;20114;-63
2022/05/19 13:20:29;;;;;;;3.60;1.60;;;;;;;;;;4140078;34;20467;-61
2022/05/19 13:23:00;;;;;;;3.90;1.70;;;;;;;;;;4151185;34;20194;-62
2022/05/19 13:25:27;;;;;;;10.65;1.90;;;;;;;;;;4163925;34;20107;-63
2022/05/19 13:30:57;;;;;;;4.90;2.17;;;;;;;;;;4152986;34;20203;-63
2022/05/19 13:33:26;;;;;;;3.47;1.80;;;;;;;;;;4151017;34;20118;-64
2022/05/19 13:35:59;;;;;;;2.50;1.40;;;;;;;;;;4151103;34;20123;-63
2022/05/19 13:38:26;;;;;;;2.30;1.48;;;;;;;;;;4151149;34;20138;-63
2022/05/19 13:40:52;;;;;;;1.98;1.42;;;;;;;;;;4163741;34;20118;-63
2022/05/19 13:43:42;;;;;;;2.15;1.58;;;;;;;;;;4151302;34;20512;-63
2022/05/19 13:46:08;;;;;;;3.00;1.50;;;;;;;;;;4140118;34;20122;-63
2022/05/19 13:48:34;;;;;;;2.65;1.58;;;;;;;;;;4163675;34;20131;-63
2022/05/19 13:51:08;;;;;;;2.58;1.40;;;;;;;;;;4163777;34;20131;-63
2022/05/19 13:53:36;;;;;;;4.10;1.60;;;;;;;;;;4163650;34;20137;-64
2022/05/19 13:56:02;;;;;;;3.08;1.70;;;;;;;;;;4150966;34;20130;-61
2022/05/19 13:58:29;;;;;;;4.05;1.83;;;;;;;;;;4150957;34;20135;-63
2022/05/19 14:00:55;;;;;;;3.97;1.92;;;;;;;;;;4150997;34;20137;-65
2022/05/19 14:03:23;;;;;;;1.52;1.42;;;;;;;;;;4163627;34;20115;-66
2022/05/19 14:05:50;;;;;;;2.37;1.50;;;;;;;;;;4149730;34;20130;-63
2022/05/19 14:08:19;;;;;;;1.75;1.48;;;;;;;;;;4148793;34;20117;-63
2022/05/19 14:10:49;;;;;;;2.58;1.60;;;;;;;;;;4161736;34;20133;-63
2022/05/19 14:13:16;;;;;;;1.95;1.48;;;;;;;;;;4161920;34;20133;-63
2022/05/19 14:15:51;;;;;;;1.87;1.62;;;;;;;;;;4161498;34;20173;-62
2022/05/19 14:18:23;;;;;;;3.10;1.30;;;;;;;;;;4150512;34;20138;-63
2022/05/19 14:20:54;;;;;;;1.58;1.40;;;;;;;;;;4151253;34;20207;-63
2022/05/19 14:23:32;;;;;;;2.50;1.98;;;;;;;;;;4163504;34;20130;-63
2022/05/19 14:26:00;;;;;;;3.62;1.65;;;;;;;;;;4150735;34;20130;-63
2022/05/19 14:28:30;;;;;;;3.50;1.33;;;;;;;;;;4150712;34;20110;-62
2022/05/19 14:30:59;;;;;;;2.60;1.70;;;;;;;;;;4150412;34;20551;-62
2022/05/19 14:33:56;;;;;;;1.60;1.50;;;;;;;;;;4163250;34;20639;-62
2022/05/19 14:36:22;;;;;;;2.50;1.60;;;;;;;;;;4141670;34;20190;-63
2022/05/19 14:38:54;;;;;;;2.40;2.20;;;;;;;;;;4163515;34;20099;-63
2022/05/19 14:44:12;;;;;;;5.03;1.65;;;;;;;;;;4152510;34;20111;-63
2022/05/19 14:46:45;;;;;;;1.60;1.50;;;;;;;;;;4163346;34;20182;-63
2022/05/19 14:49:17;;;;;;;2.87;1.75;;;;;;;;;;4163185;34;20111;-63
2022/05/19 14:51:51;;;;;;;2.60;1.67;;;;;;;;;;4150701;34;20099;-63
2022/05/19 14:54:23;;;;;;;5.53;1.80;;;;;;;;;;4163071;34;20122;-63
2022/05/19 14:56:57;;;;;;;2.55;1.55;;;;;;;;;;4163035;34;20115;-63
2022/05/19 14:59:27;;;;;;;2.60;1.37;;;;;;;;;;4163118;34;20131;-62
2022/05/19 15:01:54;;;;;;;1.48;1.35;;;;;;;;;;4150585;34;20095;-63
2022/05/19 15:04:20;;;;;;;1.62;1.40;;;;;;;;;;4163009;34;20107;-63
2022/05/19 15:06:46;;;;;;;1.62;1.52;;;;;;;;;;4150310;34;20186;-69
2022/05/19 15:09:12;;;;;;;1.40;1.30;;;;;;;;;;4150391;34;20134;-63
2022/05/19 15:11:40;;;;;;;1.52;1.42;;;;;;;;;;4150320;34;20550;-63
2022/05/19 15:14:06;;;;;;;2.37;1.83;;;;;;;;;;4163091;34;20099;-62
2022/05/19 15:16:32;;;;;;;2.12;1.80;;;;;;;;;;4149929;34;20130;-64
2022/05/19 15:18:58;;;;;;;2.60;2.03;;;;;;;;;;4163016;34;20838;-62
2022/05/19 15:21:26;;;;;;;2.42;1.98;;;;;;;;;;4150211;34;20119;-62
2022/05/19 15:23:52;;;;;;;4.07;2.20;;;;;;;;;;4162931;34;20183;-63
2022/05/19 15:26:18;;;;;;;6.00;2.28;;;;;;;;;;4162981;34;20118;-64
2022/05/19 15:28:45;;;;;;;5.00;2.30;;;;;;;;;;4150156;34;20114;-63
2022/05/19 15:31:13;;;;;;;4.15;2.47;;;;;;;;;;4150018;34;20114;-63
2022/05/19 15:33:41;;;;;;;3.95;2.58;;;;;;;;;;4162786;34;20459;-63
2022/05/19 15:36:10;;;;;;;2.60;2.20;;;;;;;;;;4162875;34;20111;-63
2022/05/19 15:38:36;;;;;;;5.22;2.37;;;;;;;;;;4163359;34;20106;-63
2022/05/19 15:41:02;;;;;;;3.30;2.00;;;;;;;;;;4164632;34;20190;-63
2022/05/19 15:43:29;;;;;;;5.25;2.40;;;;;;;;;;4152008;34;20127;-62
2022/05/19 15:45:57;;;;;;;3.75;2.42;;;;;;;;;;4152220;34;20118;-62
2022/05/19 15:48:24;;;;;;;2.58;1.90;;;;;;;;;;4151612;34;20215;-63
2022/05/19 15:50:50;;;;;;;2.42;2.08;;;;;;;;;;4164649;34;20121;-62
2022/05/19 15:53:19;;;;;;;2.80;2.00;;;;;;;;;;4164645;34;20134;-63
2022/05/19 15:55:48;;;;;;;4.57;1.87;;;;;;;;;;4164528;34;20126;-63
2022/05/19 15:58:16;;;;;;;1.95;1.75;;;;;;;;;;4164474;34;20118;-63